createdAt,value
2019-03-20T00:01:48.386Z,12.97
2019-03-20T00:04:18.243Z,13.33
2019-03-20T00:06:48.094Z,12.90
2019-03-20T00:09:17.871Z,16.13
2019-03-20T00:11:47.679Z,10.97
2019-03-20T00:14:17.475Z,13.70
2019-03-20T00:16:47.293Z,11.77
2019-03-20T00:19:17.157Z,9.57
2019-03-20T00:21:46.983Z,16.10
2019-03-20T00:24:16.805Z,13.00
2019-03-20T00:26:46.756Z,11.63
2019-03-20T00:29:16.915Z,9.97
2019-03-20T00:31:46.697Z,14.77
2019-03-20T00:38:18.695Z,13.77
2019-03-20T00:40:48.669Z,9.30
2019-03-20T00:43:18.634Z,11.20
2019-03-20T00:45:48.539Z,11.13
2019-03-20T00:48:19.003Z,8.60
2019-03-20T00:54:21.375Z,9.47
2019-03-20T00:56:51.273Z,10.47
2019-03-20T00:59:21.185Z,8.77
2019-03-20T01:01:51.191Z,14.33
2019-03-20T01:04:20.930Z,9.47
2019-03-20T01:06:50.768Z,14.30
2019-03-20T01:09:20.768Z,10.70
2019-03-20T01:11:51.017Z,13.37
2019-03-20T01:14:20.845Z,12.03
2019-03-20T01:16:50.557Z,9.90
2019-03-20T01:23:25.883Z,12.90
2019-03-20T01:25:56.037Z,12.67
2019-03-20T01:28:26.014Z,8.97
2019-03-20T01:30:56.057Z,14.07
2019-03-20T01:33:26.201Z,13.33
2019-03-20T01:35:55.953Z,15.30
2019-03-20T01:38:25.824Z,14.40
2019-03-20T01:40:55.704Z,13.70
2019-03-20T01:43:25.914Z,10.47
2019-03-20T01:45:55.705Z,13.53
2019-03-20T01:48:25.575Z,13.77
2019-03-20T01:50:55.546Z,15.17
2019-03-20T01:53:25.333Z,15.00
2019-03-20T01:55:55.130Z,10.43
2019-03-20T01:58:24.999Z,13.27
2019-03-20T02:00:54.942Z,8.17
2019-03-20T02:03:24.839Z,12.23
2019-03-20T02:05:54.747Z,9.60
2019-03-20T02:08:24.641Z,14.27
2019-03-20T02:10:54.516Z,11.17
2019-03-20T02:13:24.406Z,10.90
2019-03-20T02:15:54.344Z,10.30
2019-03-20T02:18:24.229Z,14.10
2019-03-20T02:24:26.652Z,10.47
2019-03-20T02:26:56.530Z,8.47
2019-03-20T02:29:26.508Z,8.30
2019-03-20T02:31:56.483Z,15.50
2019-03-20T02:34:26.463Z,15.90
2019-03-20T02:36:56.376Z,15.10
2019-03-20T02:39:26.212Z,12.77
2019-03-20T02:41:56.031Z,14.60
2019-03-20T02:44:25.971Z,17.37
2019-03-20T02:46:55.725Z,15.80
2019-03-20T02:49:25.549Z,15.37
2019-03-20T02:51:55.322Z,14.93
2019-03-20T02:54:25.105Z,13.17
2019-03-20T02:56:54.865Z,15.50
2019-03-20T02:59:24.707Z,14.67
2019-03-20T03:01:54.430Z,14.73
2019-03-20T03:04:24.169Z,17.30
2019-03-20T03:06:54.154Z,19.03
2019-03-20T03:09:24.149Z,14.23
2019-03-20T03:11:54.014Z,19.47
2019-03-20T03:14:24.001Z,12.03
2019-03-20T03:16:53.775Z,13.37
2019-03-20T03:19:23.507Z,16.93
2019-03-20T03:21:53.632Z,10.83
2019-03-20T03:24:23.493Z,21.40
2019-03-20T03:26:55.325Z,18.43
2019-03-20T03:29:25.294Z,14.80
2019-03-20T03:31:55.280Z,15.60
2019-03-20T03:38:42.910Z,20.23
2019-03-20T03:41:12.819Z,18.83
2019-03-20T03:43:42.814Z,15.43
2019-03-20T03:46:12.790Z,14.13
2019-03-20T03:48:42.794Z,18.47
2019-03-20T03:51:13.158Z,18.73
2019-03-20T03:53:43.120Z,14.73
2019-03-20T03:56:12.994Z,17.17
2019-03-20T03:58:42.750Z,14.70
2019-03-20T04:01:12.651Z,17.73
2019-03-20T04:03:42.345Z,17.87
2019-03-20T04:10:18.159Z,20.70
2019-03-20T04:12:47.960Z,21.50
2019-03-20T04:15:18.088Z,17.63
2019-03-20T04:17:47.872Z,22.13
2019-03-20T04:20:17.857Z,15.53
2019-03-20T04:22:47.716Z,19.67
2019-03-20T04:25:17.809Z,15.93
2019-03-20T04:27:47.696Z,21.77
2019-03-20T04:30:17.771Z,22.37
2019-03-20T04:32:47.600Z,19.07
2019-03-20T04:35:17.389Z,21.17
2019-03-20T04:37:47.271Z,15.70
2019-03-20T04:40:17.091Z,20.47
2019-03-20T04:42:47.038Z,18.67
2019-03-20T04:45:17.037Z,18.50
2019-03-20T04:47:47.029Z,21.07
2019-03-20T04:50:16.925Z,19.83
2019-03-20T04:52:46.736Z,19.47
2019-03-20T04:55:16.508Z,17.57
2019-03-20T04:57:46.443Z,19.13
2019-03-20T05:00:16.566Z,18.10
2019-03-20T05:02:46.611Z,19.67
2019-03-20T05:05:16.501Z,21.10
2019-03-20T05:07:46.899Z,16.50
2019-03-20T05:10:16.887Z,18.70
2019-03-20T05:12:46.840Z,17.67
2019-03-20T05:15:16.671Z,19.60
2019-03-20T05:17:46.565Z,18.77
2019-03-20T05:20:16.409Z,19.93
2019-03-20T05:22:46.411Z,20.87
2019-03-20T05:25:16.188Z,18.43
2019-03-20T05:27:47.798Z,18.67
2019-03-20T05:30:18.284Z,21.03
2019-03-20T05:32:48.830Z,17.87
2019-03-20T05:35:18.595Z,20.23
2019-03-20T05:37:48.826Z,16.17
2019-03-20T05:40:18.876Z,17.07
2019-03-20T05:42:56.170Z,18.13
2019-03-20T05:45:36.333Z,20.10
2019-03-20T05:48:11.371Z,22.20
2019-03-20T05:57:01.870Z,20.30
2019-03-20T05:59:34.242Z,15.53
2019-03-20T06:02:08.412Z,24.80
2019-03-20T06:04:40.818Z,16.93
2019-03-20T06:07:21.467Z,20.87
2019-03-20T06:09:46.344Z,19.83
2019-03-20T06:12:16.219Z,19.10
2019-03-20T06:14:46.126Z,17.23
2019-03-20T06:17:16.018Z,20.57
2019-03-20T06:19:46.054Z,20.43
2019-03-20T06:22:15.948Z,18.57
2019-03-20T06:24:45.907Z,19.07
2019-03-20T06:27:17.748Z,20.57
2019-03-20T06:29:47.671Z,17.70
2019-03-20T06:32:17.502Z,17.03
2019-03-20T06:34:48.956Z,19.10
2019-03-20T06:37:31.823Z,18.50
2019-03-20T06:39:53.479Z,19.97
2019-03-20T06:42:23.845Z,18.83
2019-03-20T06:45:07.735Z,18.17
2019-03-20T06:47:37.654Z,19.03
2019-03-20T06:50:11.448Z,22.13
2019-03-20T06:52:41.379Z,20.00
2019-03-20T06:55:11.301Z,19.43
2019-03-20T06:57:41.274Z,16.03
2019-03-20T07:00:42.661Z,20.30
2019-03-20T07:03:20.601Z,21.37
2019-03-20T07:06:18.314Z,18.57
2019-03-20T07:08:57.452Z,17.83
2019-03-20T07:11:25.645Z,16.97
2019-03-20T07:13:55.553Z,19.37
2019-03-20T07:16:25.515Z,16.73
2019-03-20T07:18:55.710Z,17.07
2019-03-20T07:25:07.052Z,19.13
2019-03-20T07:27:38.445Z,19.23
2019-03-20T07:30:09.885Z,20.57
2019-03-20T07:32:40.091Z,19.50
2019-03-20T07:35:10.086Z,19.30
2019-03-20T07:37:40.082Z,19.17
2019-03-20T07:40:10.147Z,17.83
2019-03-20T07:42:40.146Z,18.67
2019-03-20T07:45:10.356Z,20.00
2019-03-20T07:47:40.585Z,19.43
2019-03-20T07:50:10.824Z,19.07
2019-03-20T07:52:41.014Z,17.37
2019-03-20T07:55:11.331Z,19.20
2019-03-20T07:57:41.235Z,18.70
2019-03-20T08:00:13.174Z,19.17
2019-03-20T08:02:43.503Z,17.40
2019-03-20T08:11:39.286Z,18.43
2019-03-20T08:14:09.326Z,20.23
2019-03-20T08:16:39.189Z,19.13
2019-03-20T08:19:08.913Z,15.70
2019-03-20T08:25:11.071Z,18.20
2019-03-20T08:27:41.049Z,19.07
2019-03-20T08:30:13.880Z,17.97
2019-03-20T08:32:43.851Z,17.70
2019-03-20T08:35:13.847Z,19.30
2019-03-20T08:37:49.526Z,16.83
2019-03-20T08:40:19.563Z,17.07
2019-03-20T08:42:49.346Z,20.70
2019-03-20T08:45:19.255Z,20.30
2019-03-20T08:47:49.287Z,20.07
2019-03-20T08:50:20.246Z,20.47
2019-03-20T08:52:50.069Z,21.00
2019-03-20T08:55:19.897Z,19.50
2019-03-20T08:57:49.793Z,18.60
2019-03-20T09:00:19.809Z,20.53
2019-03-20T09:02:49.944Z,18.27
2019-03-20T09:09:37.110Z,19.23
2019-03-20T09:12:13.956Z,20.27
2019-03-20T09:14:46.088Z,22.27
2019-03-20T09:17:16.234Z,22.77
2019-03-20T09:19:46.213Z,21.00
2019-03-20T09:22:16.224Z,20.73
2019-03-20T09:24:46.028Z,19.03
2019-03-20T09:27:15.818Z,21.80
2019-03-20T09:29:45.675Z,20.80
2019-03-20T09:32:15.429Z,20.43
2019-03-20T09:34:45.476Z,20.90
2019-03-20T09:40:47.873Z,19.90
2019-03-20T09:43:17.869Z,21.23
2019-03-20T09:45:47.762Z,22.30
2019-03-20T09:48:17.687Z,20.97
2019-03-20T09:50:47.673Z,23.57
2019-03-20T09:53:17.561Z,24.90
2019-03-20T09:55:47.540Z,23.23
2019-03-20T09:58:17.450Z,19.23
2019-03-20T10:00:47.347Z,24.30
2019-03-20T10:03:17.076Z,19.03
2019-03-20T10:09:43.332Z,20.37
2019-03-20T10:12:13.146Z,24.57
2019-03-20T10:14:43.027Z,24.13
2019-03-20T10:17:13.318Z,26.77
2019-03-20T10:19:43.342Z,23.20
2019-03-20T10:22:13.294Z,25.57
2019-03-20T10:24:43.290Z,25.13
2019-03-20T10:27:13.325Z,23.83
2019-03-20T10:29:43.286Z,22.37
2019-03-20T10:32:13.424Z,21.43
2019-03-20T10:34:43.451Z,26.47
2019-03-20T10:44:45.762Z,25.57
2019-03-20T10:47:15.672Z,24.73
2019-03-20T10:49:45.617Z,24.30
2019-03-20T10:52:15.473Z,23.03
2019-03-20T10:54:45.355Z,25.73
2019-03-20T10:57:15.425Z,25.80
2019-03-20T10:59:45.470Z,24.70
2019-03-20T11:02:15.416Z,24.13
2019-03-20T11:04:45.297Z,22.60
2019-03-20T11:10:47.464Z,25.40
2019-03-20T11:13:17.256Z,23.30
2019-03-20T11:15:47.159Z,19.50
2019-03-20T11:18:17.100Z,21.03
2019-03-20T11:20:47.004Z,21.43
2019-03-20T11:23:16.891Z,22.70
2019-03-20T11:25:46.852Z,21.93
2019-03-20T11:28:16.730Z,23.27
2019-03-20T11:30:46.727Z,19.70
2019-03-20T11:33:17.511Z,19.60
2019-03-20T11:39:56.292Z,21.27
2019-03-20T11:42:26.372Z,24.07
2019-03-20T11:44:56.315Z,21.13
2019-03-20T11:47:26.370Z,20.73
2019-03-20T11:49:56.323Z,20.90
2019-03-20T11:56:07.773Z,19.93
2019-03-20T11:58:37.864Z,20.87
2019-03-20T12:01:07.881Z,21.77
2019-03-20T12:03:37.918Z,20.13
2019-03-20T12:06:07.849Z,17.53
2019-03-20T12:08:37.780Z,20.30
2019-03-20T12:11:07.685Z,18.40
2019-03-20T12:13:37.436Z,21.77
2019-03-20T12:16:07.333Z,23.40
2019-03-20T12:18:40.239Z,23.07
2019-03-20T12:25:25.661Z,19.53
2019-03-20T12:27:55.529Z,19.30
2019-03-20T12:30:27.297Z,17.63
2019-03-20T12:32:57.064Z,20.80
2019-03-20T12:35:28.222Z,16.70
2019-03-20T12:41:31.150Z,16.63
2019-03-20T12:44:01.057Z,18.47
2019-03-20T12:46:41.278Z,18.03
2019-03-20T12:49:03.091Z,15.77
2019-03-20T12:51:33.024Z,17.97
2019-03-20T12:54:02.942Z,19.73
2019-03-20T12:56:33.034Z,21.03
2019-03-20T12:59:02.918Z,15.97
2019-03-20T13:01:32.918Z,16.10
2019-03-20T13:04:02.847Z,18.67
2019-03-20T13:06:32.587Z,20.87
2019-03-20T13:09:03.776Z,16.27
2019-03-20T13:11:34.034Z,18.20
2019-03-20T13:14:04.157Z,18.57
2019-03-20T13:16:35.100Z,18.57
2019-03-20T13:19:05.149Z,19.30
2019-03-20T13:21:35.054Z,20.37
2019-03-20T13:24:04.999Z,17.27
2019-03-20T13:26:35.358Z,18.17
2019-03-20T13:29:05.326Z,17.67
2019-03-20T13:31:35.229Z,16.20
2019-03-20T13:34:05.150Z,20.17
2019-03-20T13:36:34.875Z,16.70
2019-03-20T13:39:07.034Z,19.00
2019-03-20T13:41:36.785Z,15.57
2019-03-20T13:44:06.509Z,14.07
2019-03-20T13:46:36.305Z,17.90
2019-03-20T13:49:06.531Z,17.07
2019-03-20T13:51:36.311Z,20.27
2019-03-20T13:54:06.230Z,21.27
2019-03-20T13:56:36.033Z,18.57
2019-03-20T13:59:05.850Z,18.23
2019-03-20T14:01:35.527Z,18.53
2019-03-20T14:04:05.219Z,19.13
2019-03-20T14:06:35.013Z,16.10
2019-03-20T14:09:07.705Z,15.37
2019-03-20T14:11:37.503Z,15.00
2019-03-20T14:14:07.371Z,15.37
2019-03-20T14:16:37.235Z,13.90
2019-03-20T14:19:07.189Z,13.33
2019-03-20T14:25:21.931Z,16.83
2019-03-20T14:27:51.816Z,16.10
2019-03-20T14:30:24.020Z,17.60
2019-03-20T14:32:53.798Z,15.23
2019-03-20T14:35:23.647Z,16.27
2019-03-20T14:37:53.566Z,14.93
2019-03-20T14:40:35.247Z,14.93
2019-03-20T14:42:57.502Z,16.10
2019-03-20T14:45:27.352Z,15.63
2019-03-20T14:47:57.147Z,14.23
2019-03-20T14:50:27.120Z,14.87
2019-03-20T14:56:29.931Z,14.67
2019-03-20T14:58:59.959Z,15.07
2019-03-20T15:01:29.928Z,15.80
2019-03-20T15:03:59.733Z,14.43
2019-03-20T15:10:28.888Z,12.83
2019-03-20T15:12:59.950Z,15.60
2019-03-20T15:15:39.326Z,15.07
2019-03-20T15:18:09.310Z,13.20
2019-03-20T15:20:39.202Z,14.53
2019-03-20T15:23:09.157Z,14.10
2019-03-20T15:25:39.071Z,14.23
2019-03-20T15:28:09.322Z,14.57
2019-03-20T15:30:39.450Z,14.13
2019-03-20T15:33:09.167Z,15.27
2019-03-20T15:35:38.892Z,13.90
2019-03-20T15:41:41.235Z,14.53
2019-03-20T15:44:11.060Z,15.43
2019-03-20T15:46:40.978Z,11.53
2019-03-20T15:49:10.945Z,12.40
2019-03-20T15:51:40.867Z,12.37
2019-03-20T15:54:10.804Z,12.63
2019-03-20T15:56:40.725Z,13.23
2019-03-20T15:59:10.855Z,12.90
2019-03-20T16:01:40.945Z,12.57
2019-03-20T16:04:11.084Z,15.00
2019-03-20T16:06:41.075Z,12.40
2019-03-20T16:09:11.027Z,12.20
2019-03-20T16:11:41.022Z,15.13
2019-03-20T16:14:10.952Z,13.73
2019-03-20T16:16:41.242Z,13.17
2019-03-20T16:19:11.154Z,14.60
2019-03-20T16:25:40.790Z,14.27
2019-03-20T16:28:10.646Z,14.53
2019-03-20T16:30:40.405Z,14.53
2019-03-20T16:33:10.273Z,13.93
2019-03-20T16:35:40.122Z,13.43
2019-03-20T16:38:10.005Z,14.17
2019-03-20T16:40:39.978Z,12.80
2019-03-20T16:43:09.857Z,13.50
2019-03-20T16:45:39.676Z,17.13
2019-03-20T16:48:09.664Z,15.57
2019-03-20T16:50:39.423Z,14.27
2019-03-20T16:53:09.444Z,15.33
2019-03-20T16:55:39.120Z,16.20
2019-03-20T16:58:08.865Z,16.53
2019-03-20T17:00:38.523Z,15.77
2019-03-20T17:03:08.269Z,15.27
2019-03-20T17:05:38.129Z,14.07
2019-03-20T17:08:07.877Z,16.83
2019-03-20T17:10:38.825Z,15.07
2019-03-20T17:13:08.651Z,17.77
2019-03-20T17:15:38.394Z,16.33
2019-03-20T17:18:08.601Z,15.50
2019-03-20T17:20:38.382Z,12.93
2019-03-20T17:23:08.469Z,15.63
2019-03-20T17:25:38.897Z,17.30
2019-03-20T17:28:08.970Z,16.47
2019-03-20T17:30:38.950Z,16.07
2019-03-20T17:33:08.704Z,14.73
2019-03-20T17:35:38.642Z,13.87
2019-03-20T17:38:08.388Z,15.83
2019-03-20T17:40:38.579Z,12.63
2019-03-20T17:43:08.452Z,13.87
2019-03-20T17:45:38.351Z,9.97
2019-03-20T17:48:08.371Z,13.20
2019-03-20T17:50:38.385Z,15.77
2019-03-20T17:53:08.281Z,17.43
2019-03-20T17:55:38.033Z,10.10
2019-03-20T17:58:07.902Z,16.83
2019-03-20T18:00:39.987Z,15.70
2019-03-20T18:03:09.875Z,17.27
2019-03-20T18:05:40.129Z,18.93
2019-03-20T18:11:18.482Z,15.27
2019-03-20T18:13:48.294Z,16.83
2019-03-20T18:16:18.132Z,16.90
2019-03-20T18:18:48.052Z,16.77
2019-03-20T18:21:21.249Z,17.73
2019-03-20T18:23:51.029Z,16.73
2019-03-20T18:26:20.870Z,15.17
2019-03-20T18:28:50.759Z,18.03
2019-03-20T18:31:20.590Z,16.63
2019-03-20T18:33:50.711Z,18.17
2019-03-20T18:36:20.631Z,20.57
2019-03-20T18:42:22.490Z,15.63
2019-03-20T18:44:52.219Z,20.10
2019-03-20T18:47:24.632Z,14.73
2019-03-20T18:49:54.521Z,17.57
2019-03-20T18:52:24.319Z,19.10
2019-03-20T18:54:54.009Z,21.23
2019-03-20T18:57:23.886Z,16.47
2019-03-20T18:59:53.595Z,20.30
2019-03-20T19:02:23.449Z,17.40
2019-03-20T19:04:53.303Z,16.60
2019-03-20T19:07:23.210Z,15.57
2019-03-20T19:09:53.197Z,17.60
2019-03-20T19:12:23.281Z,16.70
2019-03-20T19:14:53.179Z,15.00
2019-03-20T19:17:30.105Z,16.27
2019-03-20T19:20:00.448Z,18.67
2019-03-20T19:22:30.409Z,17.40
2019-03-20T19:25:00.507Z,15.27
2019-03-20T19:27:30.431Z,14.40
2019-03-20T19:30:00.345Z,17.67
2019-03-20T19:32:34.095Z,15.83
2019-03-20T19:35:04.762Z,16.37
2019-03-20T19:37:34.688Z,16.83
2019-03-20T19:40:05.397Z,16.27
2019-03-20T19:42:35.766Z,17.60
2019-03-20T19:45:06.676Z,16.17
2019-03-20T19:47:38.362Z,12.07
2019-03-20T19:50:10.517Z,15.40
2019-03-20T19:52:40.194Z,13.33
2019-03-20T19:55:10.514Z,14.63
2019-03-20T19:57:40.492Z,15.17
2019-03-20T20:00:13.748Z,14.63
2019-03-20T20:02:43.711Z,18.50
2019-03-20T20:05:16.113Z,15.03
2019-03-20T20:07:45.278Z,15.57
2019-03-20T20:10:15.150Z,12.60
2019-03-20T20:12:44.956Z,16.67
2019-03-20T20:15:16.980Z,15.03
2019-03-20T20:17:47.141Z,16.27
2019-03-20T20:20:18.401Z,15.10
2019-03-20T20:22:50.514Z,13.70
2019-03-20T20:25:20.266Z,15.33
2019-03-20T20:27:50.241Z,23.37
2019-03-20T20:30:20.238Z,12.20
2019-03-20T20:32:50.113Z,14.30
2019-03-20T20:35:19.880Z,15.10
2019-03-20T20:37:49.586Z,14.17
2019-03-20T20:40:19.879Z,12.80
2019-03-20T20:42:51.963Z,13.57
2019-03-20T20:45:21.712Z,14.40
2019-03-20T20:47:51.682Z,11.73
2019-03-20T20:50:21.641Z,15.30
2019-03-20T20:56:24.126Z,25.87
2019-03-20T20:58:53.899Z,11.93
2019-03-20T21:01:23.815Z,16.20
2019-03-20T21:03:53.538Z,14.73
2019-03-20T21:06:23.748Z,13.70
2019-03-20T21:08:53.806Z,13.87
2019-03-20T21:11:23.948Z,15.13
2019-03-20T21:13:53.948Z,11.13
2019-03-20T21:16:24.505Z,11.17
2019-03-20T21:19:35.737Z,11.07
2019-03-20T21:22:44.719Z,14.70
2019-03-20T21:25:16.990Z,12.43
2019-03-20T21:28:23.174Z,13.33
2019-03-20T21:31:15.346Z,13.70
2019-03-20T21:34:29.342Z,14.37
2019-03-20T21:37:44.981Z,15.73
2019-03-20T21:40:17.315Z,10.73
2019-03-20T21:43:23.065Z,12.10
2019-03-20T21:46:15.526Z,12.10
2019-03-20T21:48:46.152Z,9.70
2019-03-20T21:51:20.073Z,10.47
2019-03-20T21:54:34.190Z,12.30
2019-03-20T21:57:39.609Z,9.13
2019-03-20T22:00:50.619Z,12.47
2019-03-20T22:03:21.025Z,11.20
2019-03-20T22:06:35.237Z,12.83
2019-03-20T22:09:33.239Z,14.20
2019-03-20T22:12:22.381Z,9.73
2019-03-20T22:15:18.557Z,10.43
2019-03-20T22:18:22.769Z,9.87
2019-03-20T22:21:24.203Z,10.80
2019-03-20T22:24:34.985Z,9.73
2019-03-20T22:28:01.658Z,9.83
2019-03-20T22:30:32.176Z,10.80
2019-03-20T22:33:45.051Z,9.07
2019-03-20T22:36:23.361Z,13.73
2019-03-20T22:39:32.961Z,11.00
2019-03-20T22:42:38.182Z,11.17
2019-03-20T22:45:50.367Z,9.47
2019-03-20T22:49:04.744Z,11.73
2019-03-20T22:52:11.642Z,8.73
2019-03-20T22:55:34.357Z,12.50
2019-03-20T22:58:45.430Z,12.70
2019-03-20T23:01:30.085Z,9.50
2019-03-20T23:04:06.189Z,11.90
2019-03-20T23:06:36.775Z,12.60
2019-03-20T23:09:09.279Z,11.70
2019-03-20T23:11:40.042Z,9.70
2019-03-20T23:14:10.569Z,11.00
2019-03-20T23:16:41.034Z,9.80
2019-03-20T23:19:11.445Z,11.20
2019-03-20T23:21:41.875Z,8.03
2019-03-20T23:24:12.253Z,12.27
2019-03-20T23:26:42.733Z,10.13
2019-03-20T23:29:13.199Z,9.53
2019-03-20T23:31:43.622Z,14.53
2019-03-20T23:34:14.058Z,14.97
2019-03-20T23:36:44.429Z,12.87
2019-03-20T23:39:14.860Z,11.03
2019-03-20T23:41:45.333Z,9.83
2019-03-20T23:44:15.811Z,12.10
2019-03-20T23:46:46.391Z,12.30
2019-03-20T23:49:20.187Z,12.13
2019-03-20T23:51:50.771Z,9.77
2019-03-20T23:54:25.986Z,12.27
2019-03-20T23:56:56.514Z,14.47
2019-03-20T23:59:27.063Z,13.63
